Bergamot Ace — ZGAS5 — position and weather

sailwx.info

Track history (hours):
 
Tides and Currents Weather Stations Pressure Air Temp Water Temp Dewpoint Dewpoint Depression Visibility Wind Speed Wind Dir Waves Ship Positions

Bergamot Ace

Last reported at 2016-Aug-25 23:34 UTC. Time now 2016-Aug-25 23:46 UTC.
Position N 48°54' W 123°09'.

Length 186 m; draft 7.4 m.

Type: Cargo ship. MMSI: 319740000.

Date/timePositionNaut miles runAvg speedWind from/ knotsBaromVisibWave heightAir tempDewpointWater temp
2016-Aug-25 23:34N 48°54' W 123°09'1313.5
2016-Aug-25 22:33N 49°06' W 123°19'1110.6
2016-Aug-25 21:33N 49°08' W 123°03'6 5.8
2016-Aug-25 20:33N 49°11' W 122°55'0 0.0
2016-Aug-25 19:33N 49°11' W 122°55'0 0.0
2016-Aug-25 18:33N 49°11' W 122°55'0 0.0
2016-Aug-25 17:33N 49°11' W 122°55'0 0.0
2016-Aug-25 16:33N 49°11' W 122°55'0 0.0
2016-Aug-25 15:33N 49°11' W 122°55'0 0.0
2016-Aug-25 14:33N 49°11' W 122°55'0 0.0
2016-Aug-25 13:33N 49°11' W 122°55'0 0.0
2016-Aug-25 12:33N 49°11' W 122°55'0 0.0
2016-Aug-25 11:33N 49°11' W 122°55'0 0.0
2016-Aug-25 10:33N 49°11' W 122°55'4 4.2
2016-Aug-25 09:33N 49°09' W 123°01'1010.2
2016-Aug-25 08:33N 49°07' W 123°16'9 8.6
2016-Aug-25 07:33N 48°59' W 123°13'1514.5
2016-Aug-25 06:33N 48°46' W 123°02'2613.2
2016-Aug-25 04:33N 48°22' W 123°19'8 7.9
2016-Aug-25 03:34N 48°16' W 123°27'7 6.9
2016-Aug-25 02:33N 48°13' W 123°37'7 7.4
2016-Aug-25 01:33N 48°14' W 123°48'9 9.3
2016-Aug-25 00:32N 48°16' W 124°02'1010.3
2016-Aug-24 23:34N 48°19' W 124°16'1110.5
2016-Aug-24 22:34N 48°24' W 124°30'10 9.7
2016-Aug-24 21:33N 48°28' W 124°43'9 8.5
2016-Aug-24 20:33N 48°29' W 124°56'10 9.6
2016-Aug-24 19:34N 48°29' W 125°10'1111.4
2016-Aug-24 18:34N 48°29' W 125°28'1111.5
2016-Aug-24 17:34N 48°29' W 125°45'1111.2
2016-Aug-24 16:34N 48°29' W 126°02'10 9.5
2016-Aug-24 15:34N 48°29' W 126°16'1211.6
2016-Aug-24 14:34N 48°29' W 126°34'1111.4
2016-Aug-24 13:33N 48°29' W 126°51'1111.5
2016-Aug-24 12:34N 48°29' W 127°08'1111.3
2016-Aug-24 11:34N 48°29' W 127°25'1111.2
2016-Aug-24 10:34N 48°29' W 127°42'1111.1
2016-Aug-24 09:33N 48°29' W 127°59'1010.3
2016-Aug-24 08:33N 48°29' W 128°14'1010.4
2016-Aug-24 07:34N 48°29' W 128°30'1010.4
2016-Aug-24 06:33N 48°29' W 128°46'2110.5
2016-Aug-24 04:33N 48°28' W 129°17'  
Track history (hours):
 
Tides and Currents Weather Stations Pressure Air Temp Water Temp Dewpoint Dewpoint Depression Visibility Wind Speed Wind Dir Waves Ship Positions

Bergamot Ace

Last reported at 2016-Aug-25 23:34 UTC. Time now 2016-Aug-25 23:46 UTC.
Position N 48°54' W 123°09'.

Length 186 m; draft 7.4 m.

Type: Cargo ship. MMSI: 319740000.

Date/timePositionNaut miles runAvg speedWind from/ knotsBaromVisibWave heightAir tempDewpointWater temp
2016-Aug-25 23:34N 48°54' W 123°09'1313.5
2016-Aug-25 22:33N 49°06' W 123°19'1110.6
2016-Aug-25 21:33N 49°08' W 123°03'6 5.8
2016-Aug-25 20:33N 49°11' W 122°55'0 0.0
2016-Aug-25 19:33N 49°11' W 122°55'0 0.0
2016-Aug-25 18:33N 49°11' W 122°55'0 0.0
2016-Aug-25 17:33N 49°11' W 122°55'0 0.0
2016-Aug-25 16:33N 49°11' W 122°55'0 0.0
2016-Aug-25 15:33N 49°11' W 122°55'0 0.0
2016-Aug-25 14:33N 49°11' W 122°55'0 0.0
2016-Aug-25 13:33N 49°11' W 122°55'0 0.0
2016-Aug-25 12:33N 49°11' W 122°55'0 0.0
2016-Aug-25 11:33N 49°11' W 122°55'0 0.0
2016-Aug-25 10:33N 49°11' W 122°55'4 4.2
2016-Aug-25 09:33N 49°09' W 123°01'1010.2
2016-Aug-25 08:33N 49°07' W 123°16'9 8.6
2016-Aug-25 07:33N 48°59' W 123°13'1514.5
2016-Aug-25 06:33N 48°46' W 123°02'2613.2
2016-Aug-25 04:33N 48°22' W 123°19'8 7.9
2016-Aug-25 03:34N 48°16' W 123°27'7 6.9
2016-Aug-25 02:33N 48°13' W 123°37'7 7.4
2016-Aug-25 01:33N 48°14' W 123°48'9 9.3
2016-Aug-25 00:32N 48°16' W 124°02'1010.3
2016-Aug-24 23:34N 48°19' W 124°16'1110.5
2016-Aug-24 22:34N 48°24' W 124°30'10 9.7
2016-Aug-24 21:33N 48°28' W 124°43'9 8.5
2016-Aug-24 20:33N 48°29' W 124°56'10 9.6
2016-Aug-24 19:34N 48°29' W 125°10'1111.4
2016-Aug-24 18:34N 48°29' W 125°28'1111.5
2016-Aug-24 17:34N 48°29' W 125°45'1111.2
2016-Aug-24 16:34N 48°29' W 126°02'10 9.5
2016-Aug-24 15:34N 48°29' W 126°16'1211.6
2016-Aug-24 14:34N 48°29' W 126°34'1111.4
2016-Aug-24 13:33N 48°29' W 126°51'1111.5
2016-Aug-24 12:34N 48°29' W 127°08'1111.3
2016-Aug-24 11:34N 48°29' W 127°25'1111.2
2016-Aug-24 10:34N 48°29' W 127°42'1111.1
2016-Aug-24 09:33N 48°29' W 127°59'1010.3
2016-Aug-24 08:33N 48°29' W 128°14'1010.4
2016-Aug-24 07:34N 48°29' W 128°30'1010.4
2016-Aug-24 06:33N 48°29' W 128°46'2110.5
2016-Aug-24 04:33N 48°28' W 129°17'  

Dump ship's entire track history